Time;durP1;ratioP1;P1;durP2;ratioP2;P2;SDS_P1;SDS_P2;PMS_P1;PMS_P2;Temp;Humidity;BMP_temperature;BMP_pressure;BME280_temperature;BME280_humidity;BME280_pressure;Samples;Min_cycle;Max_cycle;Signal;HPM_P1;HPM_P2
2021/10/06 00:02:00;;;;;;;2.45;0.30;;;;;;;5.60;87.95;90679.66;4969357;28;20504;-90
2021/10/06 00:04:26;;;;;;;1.05;0.15;;;;;;;5.69;88.49;90685.59;4975916;28;20484;-90
2021/10/06 00:06:51;;;;;;;1.92;0.40;;;;;;;5.82;87.09;90689.09;4999702;28;20037;-90
2021/10/06 00:09:16;;;;;;;0.75;0.40;;;;;;;5.76;88.75;90690.34;5011373;28;20041;-90
2021/10/06 00:11:42;;;;;;;1.25;0.30;;;;;;;5.64;89.67;90692.75;4994663;28;20024;-90
2021/10/06 00:14:08;;;;;;;3.47;0.82;;;;;;;5.69;87.98;90690.03;5012642;28;20025;-91
2021/10/06 00:16:33;;;;;;;0.60;0.20;;;;;;;5.64;87.57;90695.31;4995168;28;20113;-90
2021/10/06 00:18:59;;;;;;;0.57;0.20;;;;;;;5.81;85.06;90692.00;4998789;28;20021;-90
2021/10/06 00:21:25;;;;;;;0.80;0.25;;;;;;;5.63;87.40;90691.97;5031473;28;20036;-91
2021/10/06 00:23:50;;;;;;;1.48;0.10;;;;;;;5.65;87.36;90699.44;4998742;28;20018;-91
2021/10/06 00:26:16;;;;;;;0.68;0.20;;;;;;;5.63;87.42;90688.63;4999010;28;20032;-90
2021/10/06 00:28:41;;;;;;;1.67;0.40;;;;;;;5.72;87.01;90692.75;5016172;28;20508;-90
2021/10/06 00:31:07;;;;;;;1.25;0.25;;;;;;;5.69;85.61;90698.53;4982343;28;20033;-90
2021/10/06 00:33:32;;;;;;;1.80;0.40;;;;;;;5.67;86.04;90705.06;4999023;28;20155;-90
2021/10/06 00:38:48;;;;;;;5.50;0.40;;;;;;;5.63;87.84;90701.56;5062206;28;20057;-92
2021/10/06 00:41:14;;;;;;;1.92;0.32;;;;;;;5.64;87.09;90706.41;5071431;28;20044;-92
2021/10/06 00:43:39;;;;;;;4.95;0.43;;;;;;;5.66;86.83;90701.72;5055248;28;20028;-92
2021/10/06 00:46:04;;;;;;;2.40;0.55;;;;;;;5.69;84.72;90700.38;5055873;28;20383;-90
2021/10/06 00:48:30;;;;;;;2.65;1.13;;;;;;;5.62;85.25;90700.03;5038256;28;20021;-92
2021/10/06 00:50:55;;;;;;;3.88;0.95;;;;;;;5.57;86.03;90700.94;5038212;28;20497;-92
2021/10/06 00:53:25;;;;;;;1.23;0.50;;;;;;;5.55;86.52;90705.66;5041556;28;20016;-92
2021/10/06 00:55:51;;;;;;;2.53;0.40;;;;;;;5.57;85.11;90703.53;5041459;28;20028;-92
2021/10/06 00:58:16;;;;;;;2.40;0.43;;;;;;;5.59;85.44;90701.41;5058059;28;20033;-92
2021/10/06 01:00:42;;;;;;;3.17;0.50;;;;;;;5.49;84.78;90701.69;5041174;28;20055;-92
2021/10/06 01:03:07;;;;;;;2.70;0.60;;;;;;;5.53;84.63;90702.59;5041144;28;20033;-92
2021/10/06 01:05:32;;;;;;;1.90;0.60;;;;;;;5.59;84.76;90698.06;5041326;28;20389;-92
2021/10/06 01:08:01;;;;;;;2.00;0.55;;;;;;;5.46;85.96;90699.72;5057348;28;20024;-93
2021/10/06 01:10:26;;;;;;;1.77;0.47;;;;;;;5.52;85.90;90701.09;5040854;28;20028;-92
2021/10/06 01:12:52;;;;;;;1.27;0.40;;;;;;;5.57;84.58;90703.53;5041018;28;20082;-92
2021/10/06 01:15:17;;;;;;;4.03;0.50;;;;;;;5.32;86.58;90696.47;5041103;28;20028;-91
2021/10/06 01:17:43;;;;;;;5.18;0.60;;;;;;;5.44;85.79;90694.06;5058784;28;20101;-92
2021/10/06 01:20:09;;;;;;;2.70;0.60;;;;;;;5.51;85.15;90689.22;5061594;28;20132;-92
2021/10/06 01:22:34;;;;;;;3.80;0.60;;;;;;;5.40;84.65;90698.31;5066155;28;20020;-92
2021/10/06 01:25:01;;;;;;;1.85;0.55;;;;;;;5.38;85.86;90703.03;5038087;28;20009;-93
2021/10/06 01:27:26;;;;;;;2.40;0.50;;;;;;;5.49;84.58;90706.88;5063212;28;20024;-93
2021/10/06 01:29:52;;;;;;;5.30;0.93;;;;;;;5.39;84.54;90692.41;5094081;28;20013;-93
2021/10/06 01:32:17;;;;;;;1.85;0.50;;;;;;;5.43;85.91;90695.91;5064309;28;20489;-92
2021/10/06 01:34:43;;;;;;;3.60;0.70;;;;;;;5.55;83.60;90691.97;5058089;28;20017;-91
2021/10/06 01:37:08;;;;;;;2.78;0.50;;;;;;;5.53;85.99;90694.84;5074088;28;20387;-92
2021/10/06 01:39:34;;;;;;;5.90;0.73;;;;;;;5.49;84.22;90689.53;5045817;28;20380;-92
2021/10/06 01:41:59;;;;;;;8.65;1.67;;;;;;;5.50;85.07;90705.78;5021335;28;20028;-92
2021/10/06 01:44:25;;;;;;;3.60;0.60;;;;;;;5.68;84.00;90699.56;5004301;28;20085;-92
2021/10/06 01:46:50;;;;;;;1.67;0.50;;;;;;;5.70;84.20;90700.06;5004531;28;20052;-91
2021/10/06 01:49:16;;;;;;;5.22;0.88;;;;;;;5.56;85.35;90691.66;5004269;28;20017;-92
2021/10/06 01:51:41;;;;;;;2.42;0.75;;;;;;;5.67;84.31;90692.91;5020480;28;20485;-92
2021/10/06 01:54:07;;;;;;;4.53;0.65;;;;;;;5.61;85.69;90701.84;5037519;28;20115;-92
2021/10/06 01:56:48;;;;;;;2.83;0.70;;;;;;;5.71;85.18;90698.97;5020473;28;20025;-92
2021/10/06 01:59:13;;;;;;;2.17;0.50;;;;;;;5.62;83.72;90711.16;5056014;28;20017;-92
2021/10/06 02:01:39;;;;;;;4.80;0.70;;;;;;;5.58;83.34;90694.69;5023494;28;20040;-91
2021/10/06 02:04:04;;;;;;;3.65;0.45;;;;;;;5.64;83.29;90693.50;5073495;28;20024;-92
2021/10/06 02:06:30;;;;;;;1.88;0.73;;;;;;;5.58;83.80;90699.09;5023667;28;20051;-92
2021/10/06 02:08:55;;;;;;;4.13;0.93;;;;;;;5.68;83.08;90699.56;5036528;28;20116;-92
2021/10/06 02:11:21;;;;;;;3.85;0.70;;;;;;;5.51;85.38;90684.03;5053716;28;20029;-92
2021/10/06 02:13:46;;;;;;;3.22;0.50;;;;;;;5.63;84.20;90706.75;5019682;28;20024;-92
2021/10/06 02:16:11;;;;;;;2.47;0.80;;;;;;;5.41;84.52;90705.03;5052934;28;20033;-92
2021/10/06 02:18:37;;;;;;;2.50;0.50;;;;;;;5.39;84.91;90702.72;5020214;28;20540;-92
2021/10/06 02:21:02;;;;;;;3.33;0.65;;;;;;;5.39;84.39;90700.16;5045796;28;20483;-92
2021/10/06 02:23:28;;;;;;;2.58;0.77;;;;;;;5.50;83.26;90693.63;5039790;28;20425;-91
2021/10/06 02:25:53;;;;;;;6.22;0.90;;;;;;;5.42;83.10;90696.22;5031398;28;20639;-92
2021/10/06 02:28:19;;;;;;;2.80;0.52;;;;;;;5.43;83.67;90695.13;5020155;28;20024;-92
2021/10/06 02:30:44;;;;;;;3.90;0.90;;;;;;;5.38;85.01;90711.56;5026062;28;20024;-92
2021/10/06 02:33:10;;;;;;;4.90;0.60;;;;;;;5.28;84.37;90701.50;5056099;28;20020;-92
2021/10/06 02:35:35;;;;;;;3.35;0.63;;;;;;;5.26;84.75;90706.97;5039399;28;20024;-92
2021/10/06 02:38:01;;;;;;;2.92;0.75;;;;;;;5.30;83.82;90708.94;5056195;28;20025;-92
2021/10/06 02:40:26;;;;;;;3.63;1.05;;;;;;;5.26;83.79;90699.22;5039238;28;20106;-92
2021/10/06 02:42:53;;;;;;;2.95;0.63;;;;;;;5.27;83.94;90712.91;5039286;28;20074;-92
2021/10/06 02:45:19;;;;;;;8.95;0.80;;;;;;;5.31;83.98;90710.47;5071885;28;20035;-91
2021/10/06 02:47:46;;;;;;;3.63;0.82;;;;;;;5.20;84.23;90710.75;5055817;28;20016;-91
2021/10/06 02:50:13;;;;;;;3.75;0.60;;;;;;;5.21;84.16;90720.00;5056218;28;20386;-92
2021/10/06 02:52:38;;;;;;;3.95;0.73;;;;;;;5.30;85.13;90714.09;5019258;28;20028;-92
2021/10/06 02:55:05;;;;;;;3.38;0.80;;;;;;;5.30;85.17;90714.88;5035953;28;20490;-91
2021/10/06 02:57:31;;;;;;;4.45;1.00;;;;;;;5.30;84.92;90711.50;5069020;28;20108;-92
2021/10/06 02:59:56;;;;;;;3.83;0.50;;;;;;;5.33;85.00;90708.34;5035742;28;20548;-92
2021/10/06 03:02:22;;;;;;;2.03;0.70;;;;;;;5.22;85.73;90718.94;5052569;28;20025;-92
2021/10/06 03:04:47;;;;;;;2.38;0.88;;;;;;;5.28;85.10;90717.75;5019613;28;20108;-92
2021/10/06 03:07:13;;;;;;;1.63;0.57;;;;;;;5.31;85.25;90710.47;5052302;28;20025;-92
2021/10/06 03:09:38;;;;;;;2.28;0.50;;;;;;;5.32;85.86;90722.31;5062518;28;20024;-92
2021/10/06 03:12:04;;;;;;;4.50;0.70;;;;;;;5.28;85.44;90722.91;5019390;28;20032;-91
2021/10/06 03:14:29;;;;;;;3.35;0.60;;;;;;;5.34;85.27;90720.97;5035466;28;20492;-92
2021/10/06 03:16:55;;;;;;;2.67;0.60;;;;;;;5.36;84.09;90723.25;5037609;28;20467;-92
2021/10/06 03:19:20;;;;;;;10.93;0.70;;;;;;;5.40;84.47;90729.34;5055496;28;20486;-92
2021/10/06 03:21:46;;;;;;;4.15;0.57;;;;;;;5.28;84.49;90728.09;5055372;28;20089;-92
2021/10/06 03:24:11;;;;;;;4.65;0.73;;;;;;;5.33;84.49;90734.94;5055179;28;20031;-92
2021/10/06 03:26:37;;;;;;;3.67;0.63;;;;;;;5.31;84.40;90733.72;5038743;28;20035;-92
2021/10/06 03:29:02;;;;;;;3.30;0.60;;;;;;;5.34;84.61;90735.72;5038259;28;20074;-92
2021/10/06 03:31:27;;;;;;;2.85;0.57;;;;;;;5.32;84.96;90732.66;5055211;28;20119;-92
2021/10/06 03:33:53;;;;;;;2.65;0.52;;;;;;;5.25;85.64;90739.03;5055063;28;20032;-92
2021/10/06 03:36:18;;;;;;;3.22;0.75;;;;;;;5.27;85.02;90743.91;5071899;28;20025;-92
2021/10/06 03:38:44;;;;;;;3.53;1.05;;;;;;;5.31;84.11;90744.06;5039792;28;20021;-92
2021/10/06 03:41:09;;;;;;;1.73;0.52;;;;;;;5.32;84.01;90766.25;5002181;28;20383;-92
2021/10/06 03:43:35;;;;;;;3.67;0.65;;;;;;;5.37;82.97;90750.59;5031292;28;20024;-92
2021/10/06 03:46:00;;;;;;;3.95;0.63;;;;;;;5.41;82.41;90759.31;5055120;28;20105;-92
2021/10/06 03:48:26;;;;;;;4.43;0.50;;;;;;;5.42;83.09;90759.00;5056232;28;20024;-92
2021/10/06 03:50:51;;;;;;;3.78;0.73;;;;;;;5.27;83.76;90757.56;5053093;28;20024;-93
2021/10/06 03:53:16;;;;;;;2.10;0.40;;;;;;;5.23;84.07;90761.06;5055607;28;20025;-92
2021/10/06 03:55:42;;;;;;;1.45;0.50;;;;;;;5.44;83.01;90764.63;5056327;28;20024;-92
2021/10/06 03:58:08;;;;;;;6.72;0.68;;;;;;;5.37;82.83;90771.28;5055989;28;20538;-92
2021/10/06 04:00:33;;;;;;;1.88;0.40;;;;;;;5.37;83.38;90773.84;5057489;28;20013;-92
2021/10/06 04:02:59;;;;;;;1.33;0.47;;;;;;;5.33;83.43;90781.44;5073413;28;20052;-93
2021/10/06 04:05:25;;;;;;;2.67;0.40;;;;;;;5.25;83.72;90788.09;5071971;28;20024;-93
2021/10/06 04:07:51;;;;;;;6.30;0.47;;;;;;;5.33;83.60;90796.19;5072030;28;20501;-93
2021/10/06 04:10:17;;;;;;;6.47;0.70;;;;;;;5.28;83.38;90797.84;5054965;28;20048;-93
2021/10/06 04:12:42;;;;;;;3.40;0.57;;;;;;;5.30;82.67;90791.63;5055135;28;20497;-93
2021/10/06 04:15:08;;;;;;;4.22;0.70;;;;;;;5.35;82.99;90799.25;5054781;28;20036;-92
2021/10/06 04:17:33;;;;;;;1.77;0.40;;;;;;;5.36;81.37;90806.69;5071212;28;20116;-93
2021/10/06 04:19:58;;;;;;;3.60;0.63;;;;;;;5.19;83.46;90796.28;5051366;28;20395;-93
2021/10/06 04:22:24;;;;;;;3.63;0.50;;;;;;;5.31;82.17;90813.84;5051840;28;20021;-92
2021/10/06 04:24:49;;;;;;;3.20;0.60;;;;;;;5.31;82.60;90801.66;5051278;28;20017;-92
2021/10/06 04:27:15;;;;;;;1.48;0.52;;;;;;;5.41;81.80;90813.56;5051229;28;20032;-91
2021/10/06 04:29:40;;;;;;;3.63;0.70;;;;;;;5.25;82.34;90813.19;5054446;28;20119;-91
2021/10/06 04:32:06;;;;;;;3.58;0.60;;;;;;;5.38;81.62;90819.34;5054714;28;20524;-90
2021/10/06 04:34:31;;;;;;;0.90;0.45;;;;;;;5.36;80.73;90822.19;5054514;28;20394;-94
2021/10/06 04:36:57;;;;;;;3.92;0.50;;;;;;;5.52;81.32;90830.34;5054652;28;20078;-90
2021/10/06 04:39:22;;;;;;;3.25;0.55;;;;;;;5.34;81.65;90829.50;5054871;28;20021;-91
2021/10/06 04:41:48;;;;;;;1.75;0.50;;;;;;;5.30;81.70;90838.13;5054400;28;20078;-90
2021/10/06 04:44:13;;;;;;;4.05;0.65;;;;;;;5.30;82.14;90831.16;5054546;28;20055;-90
2021/10/06 04:46:38;;;;;;;2.95;0.63;;;;;;;5.40;81.73;90830.13;5037931;28;20029;-91
2021/10/06 04:49:04;;;;;;;2.33;0.40;;;;;;;5.54;79.56;90828.19;5037540;28;20032;-93
2021/10/06 04:51:30;;;;;;;4.80;0.68;;;;;;;5.33;80.71;90822.03;5054589;28;20025;-91
2021/10/06 04:53:55;;;;;;;3.58;0.60;;;;;;;5.26;81.64;90823.25;5055165;28;20020;-90
2021/10/06 04:56:21;;;;;;;2.05;1.00;;;;;;;5.20;82.53;90828.84;5072752;28;20390;-90
2021/10/06 04:58:46;;;;;;;4.13;0.68;;;;;;;5.12;81.93;90816.63;5037697;28;20016;-90
2021/10/06 05:01:11;;;;;;;5.40;0.90;;;;;;;5.05;81.93;90824.78;5039703;28;20024;-91
2021/10/06 05:03:37;;;;;;;3.08;0.70;;;;;;;5.07;80.38;90825.25;5038179;28;20398;-90
2021/10/06 05:06:02;;;;;;;3.42;0.65;;;;;;;4.99;81.05;90816.41;5071207;28;20048;-90
2021/10/06 05:08:28;;;;;;;4.35;0.63;;;;;;;4.94;80.92;90813.94;5054165;28;20087;-89
2021/10/06 05:10:54;;;;;;;5.78;0.80;;;;;;;4.93;81.18;90815.00;5054984;28;20079;-90
2021/10/06 05:13:19;;;;;;;2.65;0.52;;;;;;;4.60;82.37;90819.66;5071404;28;20028;-91
2021/10/06 05:15:44;;;;;;;5.90;0.63;;;;;;;4.71;80.70;90818.38;5054916;28;20501;-92
2021/10/06 05:18:10;;;;;;;4.90;0.50;;;;;;;4.67;81.27;90817.44;5076341;28;20027;-93
2021/10/06 05:20:35;;;;;;;3.13;0.30;;;;;;;4.68;81.15;90824.13;5080340;28;20021;-92
2021/10/06 05:23:01;;;;;;;5.53;1.42;;;;;;;4.61;81.12;90828.16;5078392;28;20009;-90
2021/10/06 05:25:26;;;;;;;5.38;0.50;;;;;;;4.65;80.45;90831.69;5054760;28;20101;-90
2021/10/06 05:27:52;;;;;;;1.63;0.45;;;;;;;4.72;80.88;90840.53;5037756;28;20025;-91
2021/10/06 05:30:17;;;;;;;3.10;0.50;;;;;;;4.63;81.50;90844.91;5037450;28;20029;-90
2021/10/06 05:32:46;;;;;;;3.95;0.70;;;;;;;4.67;81.37;90851.00;5037410;28;20029;-91
2021/10/06 05:35:11;;;;;;;7.38;0.75;;;;;;;4.69;80.20;90855.84;5058661;28;20025;-90
2021/10/06 05:37:37;;;;;;;4.25;0.70;;;;;;;4.71;80.84;90857.09;5057284;28;20601;-90
2021/10/06 05:40:03;;;;;;;7.95;0.77;;;;;;;4.62;81.70;90858.84;5040794;28;20020;-90
2021/10/06 05:42:29;;;;;;;5.05;0.65;;;;;;;4.69;81.10;90854.03;5057277;28;20024;-91
2021/10/06 05:44:54;;;;;;;3.25;0.73;;;;;;;4.62;82.18;90845.94;5057426;28;20089;-91
2021/10/06 05:47:20;;;;;;;2.40;0.50;;;;;;;4.58;80.12;90846.81;5057366;28;20040;-90
2021/10/06 05:49:46;;;;;;;7.00;0.57;;;;;;;4.73;80.40;90842.06;5040694;28;20684;-91
2021/10/06 05:52:12;;;;;;;3.60;0.43;;;;;;;4.73;80.99;90844.63;5041586;28;20063;-90
2021/10/06 05:54:37;;;;;;;3.95;0.50;;;;;;;4.61;81.49;90843.66;5057481;28;20103;-89
2021/10/06 05:57:03;;;;;;;3.90;0.57;;;;;;;4.74;80.59;90853.94;5040142;28;20020;-89
2021/10/06 05:59:28;;;;;;;2.70;0.60;;;;;;;4.75;80.49;90847.69;5057280;28;20478;-90
2021/10/06 06:01:54;;;;;;;2.28;0.40;;;;;;;4.71;81.21;90846.00;5040223;28;20501;-90
2021/10/06 06:04:20;;;;;;;5.25;0.75;;;;;;;4.78;80.83;90846.34;5073956;28;20027;-89
2021/10/06 06:06:45;;;;;;;3.60;0.82;;;;;;;4.81;80.76;90847.59;5057025;28;20016;-90
2021/10/06 06:09:11;;;;;;;4.63;0.95;;;;;;;4.86;80.67;90852.63;5040571;28;20020;-90
2021/10/06 06:11:36;;;;;;;3.30;0.47;;;;;;;4.96;79.54;90850.56;5056705;28;20476;-90
2021/10/06 06:14:03;;;;;;;1.63;0.70;;;;;;;4.86;80.53;90850.06;5056543;28;20470;-90
2021/10/06 06:16:28;;;;;;;3.95;0.60;;;;;;;4.94;80.94;90857.09;5056248;28;20467;-90
2021/10/06 06:18:54;;;;;;;6.45;0.70;;;;;;;4.97;80.66;90852.09;5056761;28;20024;-90
2021/10/06 06:21:19;;;;;;;3.35;0.90;;;;;;;5.06;79.47;90857.31;5073088;28;20074;-90
2021/10/06 06:23:44;;;;;;;3.22;0.50;;;;;;;5.09;79.88;90859.31;5056412;28;20032;-90
2021/10/06 06:26:10;;;;;;;2.92;0.60;;;;;;;5.01;80.47;90860.00;5056440;28;20482;-90
2021/10/06 06:28:38;;;;;;;3.65;0.50;;;;;;;5.18;80.39;90878.19;5057035;28;20025;-91
2021/10/06 06:31:03;;;;;;;4.70;1.27;;;;;;;5.05;80.12;90863.53;5057002;28;20027;-89
2021/10/06 06:33:29;;;;;;;3.85;0.50;;;;;;;5.28;78.41;90882.38;5056058;28;20016;-91
2021/10/06 06:35:54;;;;;;;3.75;0.55;;;;;;;5.27;79.25;90876.44;5039537;28;20078;-90
2021/10/06 06:38:20;;;;;;;9.02;1.15;;;;;;;5.42;78.80;90877.13;5093979;23;20045;-90
2021/10/06 06:40:45;;;;;;;3.30;0.70;;;;;;;5.41;78.23;90878.19;5019419;28;20020;-91
2021/10/06 06:43:11;;;;;;;5.10;0.73;;;;;;;5.51;78.59;90880.50;5019937;28;20032;-91
2021/10/06 06:45:36;;;;;;;4.78;0.52;;;;;;;5.57;79.13;90888.91;5003494;28;20024;-90
2021/10/06 06:48:05;;;;;;;2.75;0.40;;;;;;;5.79;78.48;90888.81;5016131;28;20034;-92
2021/10/06 06:50:31;;;;;;;3.58;0.60;;;;;;;5.74;76.42;90878.63;4999513;28;20409;-91
2021/10/06 06:52:56;;;;;;;3.40;0.52;;;;;;;5.71;80.07;90877.38;4999089;28;20022;-89
2021/10/06 06:55:22;;;;;;;4.32;0.73;;;;;;;5.69;78.58;90882.13;4999230;28;20476;-90
2021/10/06 06:57:47;;;;;;;1.83;0.32;;;;;;;5.63;78.18;90872.94;5032478;28;20391;-88
2021/10/06 07:00:13;;;;;;;2.47;0.70;;;;;;;5.60;76.81;90883.13;5015957;28;20025;-90
2021/10/06 07:02:38;;;;;;;3.08;0.50;;;;;;;5.69;78.29;90884.69;5015732;28;20032;-89
2021/10/06 07:05:04;;;;;;;3.45;0.50;;;;;;;5.76;77.38;90886.84;5032116;28;20029;-91
2021/10/06 07:07:30;;;;;;;3.35;0.60;;;;;;;5.73;78.03;90895.22;5031984;28;20504;-90
2021/10/06 07:09:55;;;;;;;3.05;0.63;;;;;;;5.86;76.03;90893.56;5015608;28;20030;-90
2021/10/06 07:12:21;;;;;;;2.20;0.50;;;;;;;5.91;77.14;90898.63;5032149;28;20028;-89
2021/10/06 07:14:49;;;;;;;3.92;0.68;;;;;;;6.15;76.24;90908.63;5015721;28;20075;-90
2021/10/06 07:17:15;;;;;;;2.88;0.57;;;;;;;6.19;75.99;90896.59;5032157;28;20021;-89
2021/10/06 07:19:40;;;;;;;2.35;0.32;;;;;;;6.27;75.92;90900.28;4999621;28;20042;-90
2021/10/06 07:22:06;;;;;;;4.15;0.63;;;;;;;6.14;75.85;90899.31;5017248;28;20025;-92
2021/10/06 07:24:31;;;;;;;3.70;0.50;;;;;;;6.31;75.51;90901.19;4999329;28;20434;-92
2021/10/06 07:26:58;;;;;;;4.50;0.50;;;;;;;6.41;76.84;90908.66;4999086;28;20036;-91
2021/10/06 07:29:23;;;;;;;2.53;0.47;;;;;;;6.45;76.78;90905.16;5015320;28;20048;-91
2021/10/06 07:31:49;;;;;;;2.33;0.60;;;;;;;6.57;74.88;90904.59;5015506;28;20491;-91
2021/10/06 07:34:14;;;;;;;3.83;0.60;;;;;;;6.70;74.53;90908.09;5015356;28;20021;-92
2021/10/06 07:36:39;;;;;;;3.22;0.60;;;;;;;6.53;74.92;90914.00;5032151;28;20037;-89
2021/10/06 07:39:05;;;;;;;3.17;0.50;;;;;;;6.46;74.74;90911.88;4998946;28;20075;-90
2021/10/06 07:41:31;;;;;;;1.58;0.40;;;;;;;6.35;74.09;90905.44;5015523;28;20017;-91
2021/10/06 07:43:56;;;;;;;5.30;0.70;;;;;;;6.25;74.60;90920.50;5015669;28;20030;-91
2021/10/06 07:46:22;;;;;;;5.38;0.73;;;;;;;6.35;75.40;90907.28;5031765;28;20476;-90
2021/10/06 07:48:47;;;;;;;3.05;0.60;;;;;;;6.52;74.09;90928.03;5015569;28;20483;-89
2021/10/06 07:51:12;;;;;;;3.90;0.60;;;;;;;6.47;73.20;90928.94;5031791;28;20376;-90
2021/10/06 07:53:38;;;;;;;5.10;1.02;;;;;;;6.56;74.01;90931.53;5014825;28;20037;-90
2021/10/06 07:56:04;;;;;;;4.43;0.50;;;;;;;6.72;73.25;90933.69;5003870;28;20029;-92
2021/10/06 07:58:29;;;;;;;7.53;1.55;;;;;;;6.52;74.04;90940.22;5032077;28;20018;-90
2021/10/06 08:00:54;;;;;;;4.63;1.00;;;;;;;6.53;73.55;90965.78;5002228;28;20025;-90
2021/10/06 08:03:20;;;;;;;3.95;0.60;;;;;;;6.34;74.11;90947.94;4999097;28;20395;-90
2021/10/06 08:05:47;;;;;;;2.75;0.52;;;;;;;6.46;73.61;90940.34;5014914;28;20482;-89
2021/10/06 08:08:13;;;;;;;2.83;0.75;;;;;;;6.23;73.37;90951.88;5017362;28;20045;-92
2021/10/06 08:10:38;;;;;;;5.65;0.65;;;;;;;6.18;73.66;90949.41;5032717;28;20772;-89
2021/10/06 08:13:04;;;;;;;2.17;0.45;;;;;;;6.11;74.48;90944.69;4998965;28;20107;-89
2021/10/06 08:15:30;;;;;;;3.20;0.30;;;;;;;6.22;73.62;90947.75;5031611;28;20033;-90
2021/10/06 08:17:56;;;;;;;2.78;0.47;;;;;;;6.35;73.67;90964.22;5014674;28;20562;-90
2021/10/06 08:20:21;;;;;;;3.08;0.50;;;;;;;6.41;72.13;90963.03;4998602;28;20018;-90
2021/10/06 08:22:47;;;;;;;1.52;0.50;;;;;;;6.43;72.59;90976.41;4998435;28;20665;-89
2021/10/06 08:25:12;;;;;;;3.50;0.50;;;;;;;6.43;72.16;90979.00;4998355;28;20454;-90
2021/10/06 08:27:38;;;;;;;4.13;0.52;;;;;;;6.50;72.59;90978.56;5032482;28;20087;-89
2021/10/06 08:30:04;;;;;;;4.82;0.50;;;;;;;6.29;72.93;90978.34;5014484;28;20053;-88
2021/10/06 08:32:29;;;;;;;3.50;0.47;;;;;;;6.46;72.48;90970.66;5031382;28;20026;-89
2021/10/06 08:34:55;;;;;;;2.05;0.35;;;;;;;6.27;71.29;90964.97;5032043;28;20028;-89
2021/10/06 08:37:20;;;;;;;1.55;0.30;;;;;;;6.36;72.99;90971.72;5032186;28;20032;-90
2021/10/06 08:39:46;;;;;;;2.88;0.50;;;;;;;6.50;72.76;90981.91;5017906;28;20040;-90
2021/10/06 08:42:11;;;;;;;5.45;0.55;;;;;;;6.64;72.39;90987.78;5002147;28;20078;-90
2021/10/06 08:44:37;;;;;;;1.38;0.38;;;;;;;6.54;70.39;90976.94;5018307;28;20129;-89
2021/10/06 08:47:03;;;;;;;5.00;0.93;;;;;;;6.68;71.00;90977.56;5002321;28;20029;-90
2021/10/06 08:49:28;;;;;;;5.63;0.85;;;;;;;7.10;75.33;90988.28;5035564;28;20036;-88
2021/10/06 08:51:54;;;;;;;4.88;0.50;;;;;;;7.43;71.76;90991.19;5001621;28;20479;-90
2021/10/06 08:54:20;;;;;;;1.05;0.30;;;;;;;7.33;70.23;90975.94;5002403;28;20471;-90
2021/10/06 08:56:48;;;;;;;4.60;0.57;;;;;;;7.38;72.29;90984.31;5018452;28;20083;-90
2021/10/06 08:59:14;;;;;;;6.40;0.52;;;;;;;7.96;71.76;90989.28;5017229;28;20049;-90
2021/10/06 09:01:43;;;;;;;6.10;0.52;;;;;;;8.23;71.63;90993.28;5018082;28;20025;-89
2021/10/06 09:04:09;;;;;;;3.85;0.40;;;;;;;7.99;66.43;90991.25;5018270;28;20443;-90
2021/10/06 09:06:34;;;;;;;5.13;0.50;;;;;;;7.87;69.99;90997.06;5035323;28;20026;-90
2021/10/06 09:09:09;;;;;;;3.50;0.40;;;;;;;7.53;67.42;90995.31;5019150;28;20087;-90
2021/10/06 09:11:35;;;;;;;1.60;0.38;;;;;;;7.56;68.08;90998.03;5001696;28;20025;-90
2021/10/06 09:14:05;;;;;;;3.35;0.50;;;;;;;7.68;68.96;90991.47;5018099;28;20095;-90
2021/10/06 09:16:30;;;;;;;2.25;0.50;;;;;;;7.83;68.42;91014.31;5018313;28;20025;-90
2021/10/06 09:18:56;;;;;;;5.85;0.60;;;;;;;8.07;68.13;91014.56;5018109;28;20475;-90
2021/10/06 09:21:21;;;;;;;5.10;0.65;;;;;;;7.96;67.17;91007.44;5001308;28;20056;-90
2021/10/06 09:23:46;;;;;;;2.92;0.57;;;;;;;8.20;67.91;91007.69;5001305;28;20518;-90
2021/10/06 09:26:13;;;;;;;4.65;0.50;;;;;;;8.01;66.47;91000.22;5001253;28;20395;-90
2021/10/06 09:28:42;;;;;;;3.72;0.47;;;;;;;8.28;65.96;91011.31;5016750;28;20071;-91
2021/10/06 09:31:10;;;;;;;1.90;0.43;;;;;;;8.18;67.62;91006.47;5000979;28;20087;-90
2021/10/06 09:33:45;;;;;;;6.70;0.60;;;;;;;8.24;66.72;91013.00;5001171;28;20026;-89
2021/10/06 09:36:25;;;;;;;3.88;0.40;;;;;;;8.23;66.85;91019.25;5034136;28;20021;-91
2021/10/06 09:38:57;;;;;;;2.90;0.55;;;;;;;7.96;66.00;91015.22;5017245;28;20057;-91
2021/10/06 09:41:39;;;;;;;2.05;0.40;;;;;;;7.88;66.96;91021.97;5017257;28;20031;-91
2021/10/06 09:44:08;;;;;;;1.52;0.40;;;;;;;7.90;66.64;91030.94;5023500;28;20013;-90
2021/10/06 09:46:53;;;;;;;3.30;0.45;;;;;;;8.21;66.29;91027.38;5018577;28;20029;-90
2021/10/06 09:49:38;;;;;;;2.97;0.40;;;;;;;8.17;66.16;91028.31;5016604;28;20112;-91
2021/10/06 09:52:15;;;;;;;2.50;0.40;;;;;;;8.09;65.85;91024.63;5000740;28;20403;-90
2021/10/06 09:54:49;;;;;;;2.42;0.60;;;;;;;7.78;67.05;91022.28;5016879;28;20026;-90
2021/10/06 09:57:30;;;;;;;3.53;0.30;;;;;;;8.22;67.32;91028.13;5016963;28;20030;-91
2021/10/06 10:00:17;;;;;;;1.15;0.30;;;;;;;8.29;66.14;91041.41;5033867;28;20021;-91
2021/10/06 10:02:44;;;;;;;1.77;0.40;;;;;;;8.20;64.90;91032.84;5000487;28;20491;-91
2021/10/06 10:05:09;;;;;;;3.00;0.40;;;;;;;7.99;65.74;91030.94;5000780;28;20029;-91
2021/10/06 10:07:35;;;;;;;3.10;0.35;;;;;;;8.07;65.81;91043.13;5000559;28;20028;-90
2021/10/06 10:10:01;;;;;;;2.90;0.40;;;;;;;8.19;66.65;91039.88;5026436;28;20013;-91
2021/10/06 10:12:27;;;;;;;3.10;0.50;;;;;;;7.94;66.82;91048.50;5058691;28;20115;-88
2021/10/06 10:14:52;;;;;;;2.97;0.60;;;;;;;7.99;67.34;91046.50;5005489;28;20071;-90
2021/10/06 10:17:18;;;;;;;1.02;0.20;;;;;;;7.95;66.35;91058.59;5016877;28;20097;-90
2021/10/06 10:19:44;;;;;;;4.90;0.50;;;;;;;8.00;67.02;91050.63;5000109;28;20033;-91
2021/10/06 10:22:10;;;;;;;1.05;0.30;;;;;;;7.83;64.47;91064.38;4999996;28;20032;-91
2021/10/06 10:24:43;;;;;;;6.00;0.85;;;;;;;7.56;69.54;91068.06;5000024;28;20556;-91
2021/10/06 10:27:10;;;;;;;2.17;0.40;;;;;;;7.77;67.48;91057.06;5016120;28;20024;-91
2021/10/06 10:29:49;;;;;;;2.17;0.40;;;;;;;7.74;67.62;91052.47;4999948;28;20017;-91
2021/10/06 10:32:20;;;;;;;2.88;0.40;;;;;;;7.64;67.04;91054.31;5016628;28;20382;-90
2021/10/06 10:35:15;;;;;;;2.80;0.50;;;;;;;8.04;67.26;91061.16;5016209;28;20021;-90
2021/10/06 10:37:50;;;;;;;2.28;0.43;;;;;;;8.26;67.91;91055.00;4997625;28;20060;-90
2021/10/06 10:40:34;;;;;;;2.55;0.35;;;;;;;8.31;66.31;91052.25;5016080;28;20113;-90
2021/10/06 10:43:08;;;;;;;3.35;0.50;;;;;;;8.61;64.57;91058.25;5034100;28;20037;-90
2021/10/06 10:45:59;;;;;;;3.13;0.40;;;;;;;8.89;64.63;91058.59;5034272;28;20021;-91
2021/10/06 10:48:43;;;;;;;1.33;0.30;;;;;;;9.11;64.54;91070.56;5012349;28;20033;-91
2021/10/06 10:51:10;;;;;;;0.55;0.30;;;;;;;8.76;63.23;91065.56;5016556;28;20463;-92
2021/10/06 10:53:51;;;;;;;1.60;0.30;;;;;;;8.64;61.15;91073.25;4999914;28;20025;-90
2021/10/06 10:56:26;;;;;;;0.82;0.28;;;;;;;8.78;62.25;91078.22;5016130;28;20025;-91
2021/10/06 10:59:19;;;;;;;3.30;0.30;;;;;;;8.75;62.45;91071.81;5032111;28;20116;-90
2021/10/06 11:01:47;;;;;;;1.95;0.43;;;;;;;8.79;61.61;91075.31;4996257;28;20037;-91
2021/10/06 11:04:19;;;;;;;4.43;0.40;;;;;;;8.70;62.72;91068.63;4999813;28;20048;-91
2021/10/06 11:06:48;;;;;;;2.00;0.28;;;;;;;8.71;63.68;91070.16;5016154;28;20036;-91
2021/10/06 11:09:29;;;;;;;1.30;0.30;;;;;;;8.66;63.66;91078.91;4999432;28;20022;-91
2021/10/06 11:11:55;;;;;;;3.35;0.60;;;;;;;8.60;64.29;91083.50;5033211;28;20032;-91
2021/10/06 11:14:21;;;;;;;0.70;0.30;;;;;;;8.56;63.58;91087.03;5015901;28;20029;-91
2021/10/06 11:17:14;;;;;;;1.80;0.30;;;;;;;8.57;63.15;91084.09;4999557;28;20025;-91
2021/10/06 11:19:43;;;;;;;2.38;0.30;;;;;;;8.78;63.58;91084.19;5033885;28;20483;-90
2021/10/06 11:22:24;;;;;;;0.90;0.30;;;;;;;8.70;63.68;91077.19;5015631;28;20040;-90
2021/10/06 11:24:50;;;;;;;1.52;0.30;;;;;;;8.76;63.43;91085.56;5015415;28;20395;-91
2021/10/06 11:27:15;;;;;;;1.25;0.30;;;;;;;8.33;64.20;91087.19;5017689;28;20022;-93
2021/10/06 11:29:42;;;;;;;1.70;0.30;;;;;;;8.73;63.70;91081.78;5018645;28;20085;-90
2021/10/06 11:32:07;;;;;;;3.80;0.50;;;;;;;8.71;62.91;91076.09;5015705;28;20021;-90
2021/10/06 11:34:33;;;;;;;2.10;0.30;;;;;;;8.70;62.99;91076.44;5015682;28;20079;-90
2021/10/06 11:36:58;;;;;;;0.57;0.30;;;;;;;8.74;64.23;91078.09;5015840;28;20040;-90
2021/10/06 11:39:26;;;;;;;3.22;0.30;;;;;;;9.16;62.78;91067.03;5031880;28;20025;-91
2021/10/06 11:41:52;;;;;;;1.50;0.30;;;;;;;9.48;62.75;91076.03;5016883;28;20018;-91
2021/10/06 11:44:36;;;;;;;1.45;0.30;;;;;;;8.95;59.50;91067.00;4999515;28;20036;-91